Neptune Antlia — S6BE — position and weather

sailwx.info

Track history (hours):
 
Tides and Currents Weather Stations Pressure Air Temp Water Temp Dewpoint Dewpoint Depression Visibility Wind Speed Wind Dir Waves Ship Positions

Neptune Antlia

Last reported at 2014-Oct-31 14:33 UTC. Time now 2014-Nov-01 10:34 UTC.
Position N 35°60' W 005°16'.

Type: Cargo ship. MMSI: 563737000.

Date/timePositionNaut miles runAvg speedWind from/ knotsBaromVisibWave heightAir tempDewpointWater temp
2014-Oct-31 14:33N 35°60' W 005°16'1312.6
2014-Oct-31 13:33N 35°57' W 005°32'15811.2
2014-Oct-30 23:26N 34°26' W 008°09'1011.4
2014-Oct-30 22:32N 34°19' W 008°18'1111.1
2014-Oct-30 21:33N 34°12' W 008°28'1111.1
2014-Oct-30 20:33N 34°04' W 008°38'1611.4
2014-Oct-30 19:09N 33°53' W 008°52'711.3
2014-Oct-30 18:33N 33°49' W 008°58'  
2014-Oct-26 07:18N 19°48' W 025°04'1211.0
2014-Oct-26 06:15N 19°40' W 025°13'8011.2
2014-Oct-25 23:07N 18°43' W 026°12'11811.1
2014-Oct-25 12:29N 17°18' W 027°38'  
Track history (hours):
 
Tides and Currents Weather Stations Pressure Air Temp Water Temp Dewpoint Dewpoint Depression Visibility Wind Speed Wind Dir Waves Ship Positions

Neptune Antlia

Last reported at 2014-Oct-31 14:33 UTC. Time now 2014-Nov-01 10:34 UTC.
Position N 35°60' W 005°16'.

Type: Cargo ship. MMSI: 563737000.

Date/timePositionNaut miles runAvg speedWind from/ knotsBaromVisibWave heightAir tempDewpointWater temp
2014-Oct-31 14:33N 35°60' W 005°16'1312.6
2014-Oct-31 13:33N 35°57' W 005°32'15811.2
2014-Oct-30 23:26N 34°26' W 008°09'1011.4
2014-Oct-30 22:32N 34°19' W 008°18'1111.1
2014-Oct-30 21:33N 34°12' W 008°28'1111.1
2014-Oct-30 20:33N 34°04' W 008°38'1611.4
2014-Oct-30 19:09N 33°53' W 008°52'711.3
2014-Oct-30 18:33N 33°49' W 008°58'  
2014-Oct-26 07:18N 19°48' W 025°04'1211.0
2014-Oct-26 06:15N 19°40' W 025°13'8011.2
2014-Oct-25 23:07N 18°43' W 026°12'11811.1
2014-Oct-25 12:29N 17°18' W 027°38'  

Dump ship's entire track history